WordPress database error: []
INSERT INTO `taf` (`ID`, `ICAO`, `datetime`, `reading`, `dayfrom`, `hourfrom`, `dayto`, `hourto`, `direction`, `direction_varmin`, `direction_varmax`, `windspeed`, `windspeed_gusts`, `created`) VALUES (NULL, 'EDDF', '2017-09-19 17:00:00', 'EDDF 191700Z 1918/2024 25004KT 9999 FEW035 TEMPO 2002/2008 2000 BCFG PROB30 TEMPO 2004/2007 0500 FG BKN001 PROB30 TEMPO 2012/2015 30010KT SHRA SCT025TCU', '19', '18', '20', '24', '250', '', '', '4', '', '2017-09-20 03:38:06')

TAF RAW:EDDF 191700Z 1918/2024 25004KT 9999 FEW035 TEMPO 2002/2008 2000 BCFG PROB30 TEMPO 2004/2007 0500 FG BKN001 PROB30 TEMPO 2012/2015 30010KT SHRA SCT025TCU
-----------------------------------------------------------------------------------------------------------------------------------------------------------------------------
'datetime':2017-09-19 17:00:00
'ICAO':EDDF
'reading':
'dayfrom':19
'hourfrom':18
'dayto':20
'hourto':24
'direction':250
'direction_varmin':
'direction_varmax':
'windspeed':4
'windspeed_gusts':
'created':2017-09-20 03:38:06